Time;durP1;ratioP1;P1;durP2;ratioP2;P2;SDS_P1;SDS_P2;PMS_P1;PMS_P2;Temp;Humidity;BMP_temperature;BMP_pressure;BME280_temperature;BME280_humidity;BME280_pressure;Samples;Min_cycle;Max_cycle;Signal;HPM_P1;HPM_P2
2023/02/19 00:02:26;;;;;;;1.80;1.70;;;10.40;99.90;;;;;;4944916;28;20051;-76
2023/02/19 00:04:54;;;;;;;4.47;2.05;;;10.30;99.90;;;;;;4944116;29;20045;-75
2023/02/19 00:07:22;;;;;;;1.50;1.40;;;10.30;99.90;;;;;;4953614;28;20284;-76
2023/02/19 00:09:49;;;;;;;1.55;1.45;;;10.30;99.90;;;;;;4946448;29;20051;-76
2023/02/19 00:12:19;;;;;;;1.60;1.50;;;10.30;99.90;;;;;;4953607;28;20047;-76
2023/02/19 00:14:47;;;;;;;2.25;2.05;;;10.30;99.90;;;;;;4927224;29;20059;-76
2023/02/19 00:17:15;;;;;;;1.30;1.17;;;10.20;99.90;;;;;;4944029;28;20043;-76
2023/02/19 00:19:43;;;;;;;3.05;1.67;;;10.30;99.90;;;;;;4935281;28;20061;-75
2023/02/19 00:22:11;;;;;;;1.55;1.45;;;10.20;99.90;;;;;;4947858;28;20050;-76
2023/02/19 00:24:39;;;;;;;1.67;1.50;;;10.20;99.90;;;;;;4908889;29;20055;-76
2023/02/19 00:27:07;;;;;;;1.10;1.05;;;10.10;99.90;;;;;;4944302;29;20039;-75
2023/02/19 00:29:35;;;;;;;1.60;1.48;;;10.20;99.90;;;;;;4935017;29;20043;-75
2023/02/19 00:32:02;;;;;;;1.45;1.35;;;10.20;99.90;;;;;;4948071;29;20058;-76
2023/02/19 00:34:30;;;;;;;2.03;1.60;;;10.30;99.90;;;;;;4947512;28;20052;-76
2023/02/19 00:36:58;;;;;;;1.73;1.20;;;10.30;99.90;;;;;;4912845;29;20051;-76
2023/02/19 00:39:26;;;;;;;1.58;1.48;;;10.20;99.90;;;;;;4929797;29;20058;-76
2023/02/19 00:41:53;;;;;;;1.40;1.30;;;10.30;99.90;;;;;;4930083;29;20043;-75
2023/02/19 00:44:21;;;;;;;2.17;1.98;;;10.30;99.90;;;;;;4886034;29;20059;-75
2023/02/19 00:46:49;;;;;;;1.98;1.20;;;10.20;99.90;;;;;;4948312;28;20058;-76
2023/02/19 00:49:30;;;;;;;1.10;1.00;;;10.30;99.90;;;;;;4926346;29;20061;-76
2023/02/19 00:51:58;;;;;;;1.85;1.38;;;10.30;99.90;;;;;;4947621;29;20051;-76
2023/02/19 00:54:26;;;;;;;4.93;1.92;;;10.30;99.90;;;;;;4946522;29;20054;-76
2023/02/19 00:56:54;;;;;;;2.10;1.80;;;10.30;99.90;;;;;;4942919;28;20698;-76
2023/02/19 00:59:21;;;;;;;1.85;1.55;;;10.30;99.90;;;;;;4923716;29;20036;-76
2023/02/19 01:01:49;;;;;;;2.78;1.73;;;10.20;99.90;;;;;;4921385;29;20032;-75
2023/02/19 01:04:17;;;;;;;1.80;1.63;;;10.20;99.90;;;;;;4947819;29;20429;-76
2023/02/19 01:06:45;;;;;;;2.65;1.50;;;10.20;99.90;;;;;;4943222;28;20046;-75
2023/02/19 01:09:12;;;;;;;1.60;1.35;;;10.20;99.90;;;;;;4943780;28;20054;-75
2023/02/19 01:11:40;;;;;;;1.25;1.15;;;10.20;99.90;;;;;;4912398;29;20058;-76
2023/02/19 01:14:09;;;;;;;1.90;1.73;;;10.10;99.90;;;;;;4932350;28;20051;-76
2023/02/19 01:16:37;;;;;;;1.60;0.93;;;10.20;99.90;;;;;;4929067;29;20066;-76
2023/02/19 01:19:04;;;;;;;1.83;1.73;;;10.20;99.90;;;;;;4945293;29;20054;-76
2023/02/19 01:21:32;;;;;;;1.02;1.02;;;10.20;99.90;;;;;;4934931;28;20043;-76
2023/02/19 01:24:00;;;;;;;1.63;1.35;;;10.20;99.90;;;;;;4947439;29;20051;-76
2023/02/19 01:26:30;;;;;;;1.73;1.55;;;10.30;99.90;;;;;;4946856;28;20616;-75
2023/02/19 01:29:01;;;;;;;1.23;1.13;;;10.20;99.90;;;;;;4926954;29;20055;-76
2023/02/19 01:31:31;;;;;;;2.35;2.15;;;10.20;99.90;;;;;;4926934;29;20062;-76
2023/02/19 01:34:02;;;;;;;1.75;1.40;;;10.20;99.90;;;;;;4952496;28;20047;-76
2023/02/19 01:36:33;;;;;;;1.75;1.58;;;10.20;99.90;;;;;;4931409;28;20055;-76
2023/02/19 01:39:03;;;;;;;2.45;1.80;;;10.10;99.90;;;;;;4944055;29;20059;-76
2023/02/19 01:41:35;;;;;;;1.58;1.48;;;10.10;99.90;;;;;;4944703;29;20054;-75
2023/02/19 01:44:27;;;;;;;2.20;1.40;;;10.10;99.90;;;;;;4954136;28;20529;-76
2023/02/19 01:46:57;;;;;;;1.77;1.52;;;10.10;99.90;;;;;;4953409;28;20468;-76
2023/02/19 01:49:30;;;;;;;1.73;1.60;;;10.10;99.90;;;;;;4948818;28;20069;-76
2023/02/19 01:52:13;;;;;;;1.67;1.23;;;10.20;99.90;;;;;;4951001;29;20055;-75
2023/02/19 01:54:44;;;;;;;2.25;1.10;;;10.20;99.90;;;;;;4928568;29;20059;-75
2023/02/19 01:57:17;;;;;;;1.73;1.63;;;10.10;99.90;;;;;;4943221;29;20043;-75
2023/02/19 01:59:49;;;;;;;1.63;1.52;;;10.10;99.90;;;;;;4950447;29;20051;-76
2023/02/19 02:02:17;;;;;;;1.60;1.50;;;10.10;99.90;;;;;;4950018;28;20051;-90
2023/02/19 02:04:45;;;;;;;1.25;1.17;;;10.10;99.90;;;;;;4932788;29;20063;-89
2023/02/19 02:10:21;;;;;;;1.52;1.20;;;10.20;99.90;;;;;;4933523;29;20082;-88
2023/02/19 02:12:51;;;;;;;0.93;0.90;;;10.10;99.90;;;;;;4951596;28;20043;-87
2023/02/19 02:15:21;;;;;;;2.67;1.40;;;10.00;99.90;;;;;;4918338;29;20055;-86
2023/02/19 02:18:35;;;;;;;1.77;1.67;;;10.00;99.90;;;;;;4932444;28;20058;-88
2023/02/19 02:21:23;;;;;;;1.05;1.05;;;10.00;99.90;;;;;;4859675;29;20045;-87
2023/02/19 02:24:31;;;;;;;2.65;1.77;;;10.00;99.90;;;;;;4930588;29;20062;-88
2023/02/19 02:27:29;;;;;;;1.70;1.42;;;10.00;99.90;;;;;;4900753;29;20051;-88
2023/02/19 02:30:22;;;;;;;2.13;1.67;;;9.80;99.90;;;;;;4917360;29;20471;-87
2023/02/19 02:33:11;;;;;;;1.52;1.40;;;9.80;99.90;;;;;;4934696;29;20047;-87
2023/02/19 02:35:50;;;;;;;2.15;1.40;;;9.70;99.90;;;;;;4903751;28;20055;-87
2023/02/19 02:38:27;;;;;;;4.05;1.67;;;9.60;99.90;;;;;;4924473;29;20071;-87
2023/02/19 02:40:55;;;;;;;2.03;1.85;;;9.60;99.90;;;;;;4932493;29;20051;-85
2023/02/19 02:43:24;;;;;;;1.67;1.58;;;9.60;99.90;;;;;;4930941;28;20062;-88
2023/02/19 02:45:51;;;;;;;0.88;0.85;;;9.60;99.90;;;;;;4950717;28;20047;-87
2023/02/19 02:48:56;;;;;;;9.15;1.75;;;9.50;99.90;;;;;;4927260;29;20054;-88
2023/02/19 02:51:34;;;;;;;2.03;1.85;;;9.50;99.90;;;;;;4930723;29;20413;-90
2023/02/19 02:57:13;;;;;;;2.55;1.30;;;9.30;99.90;;;;;;4949596;28;20047;-87
2023/02/19 02:59:47;;;;;;;2.22;2.05;;;9.10;99.90;;;;;;4931752;29;20067;-87
2023/02/19 03:02:25;;;;;;;1.38;1.27;;;9.10;99.90;;;;;;4937417;29;20047;-88
2023/02/19 03:08:14;;;;;;;2.33;1.88;;;9.10;99.90;;;;;;4931976;29;20070;-88
2023/02/19 03:10:50;;;;;;;5.70;1.50;;;9.00;99.90;;;;;;4935308;29;20055;-90
2023/02/19 03:19:18;;;;;;;1.67;1.55;;;8.60;99.90;;;;;;4920763;29;20051;-88
2023/02/19 03:21:58;;;;;;;1.50;1.40;;;8.60;99.90;;;;;;4930521;29;20055;-87
2023/02/19 03:27:20;;;;;;;2.70;2.33;;;8.40;99.90;;;;;;4930819;29;20059;-88
2023/02/19 03:29:58;;;;;;;1.67;1.58;;;8.40;99.90;;;;;;4935843;29;20062;-88
2023/02/19 03:32:43;;;;;;;2.55;2.17;;;8.30;99.90;;;;;;4955363;29;20058;-87
2023/02/19 03:35:30;;;;;;;1.90;1.80;;;8.20;99.90;;;;;;4939596;29;20058;-90
2023/02/19 03:38:12;;;;;;;2.42;2.08;;;8.20;99.90;;;;;;4929825;29;20054;-88
2023/02/19 03:41:13;;;;;;;3.42;1.70;;;8.10;99.90;;;;;;4937093;29;20052;-88
2023/02/19 03:43:51;;;;;;;2.08;1.90;;;8.00;99.90;;;;;;4915482;29;20067;-86
2023/02/19 03:46:46;;;;;;;3.13;2.22;;;8.00;99.90;;;;;;4919888;29;20040;-87
2023/02/19 03:54:21;;;;;;;2.75;2.30;;;7.90;99.90;;;;;;4956314;28;20043;-76
2023/02/19 03:57:06;;;;;;;1.70;1.60;;;7.80;99.90;;;;;;4954639;29;20035;-76
2023/02/19 04:00:20;;;;;;;2.95;2.40;;;7.80;99.90;;;;;;4937957;29;20047;-76
2023/02/19 04:03:01;;;;;;;2.67;2.47;;;7.80;99.90;;;;;;4904889;29;20054;-76
2023/02/19 04:05:31;;;;;;;2.70;2.40;;;7.70;99.90;;;;;;4938201;29;20051;-76
2023/02/19 04:08:16;;;;;;;1.95;1.80;;;7.70;99.90;;;;;;4922571;29;20055;-76
2023/02/19 04:10:50;;;;;;;4.28;3.88;;;7.70;99.90;;;;;;4936592;29;20447;-76
2023/02/19 04:13:28;;;;;;;1.70;1.60;;;7.70;99.90;;;;;;4937749;29;20043;-76
2023/02/19 04:16:05;;;;;;;2.92;2.50;;;7.80;99.90;;;;;;4955402;29;20066;-76
2023/02/19 04:18:37;;;;;;;2.55;2.33;;;7.80;99.90;;;;;;4923586;29;20055;-76
2023/02/19 04:21:06;;;;;;;4.57;3.53;;;7.70;99.90;;;;;;4955289;29;20050;-76
2023/02/19 04:23:39;;;;;;;3.03;2.72;;;7.70;99.90;;;;;;4944950;28;20051;-76
2023/02/19 04:26:08;;;;;;;2.28;2.08;;;7.70;99.90;;;;;;4974791;28;20061;-76
2023/02/19 04:28:37;;;;;;;6.32;3.10;;;7.70;99.90;;;;;;4958181;28;20035;-77
2023/02/19 04:31:05;;;;;;;4.25;2.47;;;7.60;99.90;;;;;;4975295;28;20043;-77
2023/02/19 04:33:33;;;;;;;2.25;2.15;;;7.70;99.90;;;;;;4961618;28;20045;-76
2023/02/19 04:36:01;;;;;;;3.00;1.77;;;7.60;99.90;;;;;;4952930;28;20054;-77
2023/02/19 04:38:29;;;;;;;3.15;2.38;;;7.60;99.90;;;;;;4970062;28;20048;-76
2023/02/19 04:40:56;;;;;;;3.65;2.90;;;7.70;99.90;;;;;;4940045;29;20038;-76
2023/02/19 04:43:24;;;;;;;3.58;2.58;;;7.60;99.90;;;;;;4975106;28;20357;-76
2023/02/19 04:45:52;;;;;;;4.50;2.42;;;7.70;99.90;;;;;;4970830;28;20045;-77
2023/02/19 04:48:20;;;;;;;6.25;3.28;;;7.70;99.90;;;;;;4963196;28;20107;-76
2023/02/19 04:50:48;;;;;;;3.15;2.72;;;7.70;99.90;;;;;;4974417;28;20045;-76
2023/02/19 04:53:15;;;;;;;3.92;2.55;;;7.60;99.90;;;;;;4961837;28;20039;-76
2023/02/19 04:55:43;;;;;;;2.35;2.15;;;7.70;99.90;;;;;;4946902;28;20176;-76
2023/02/19 04:58:11;;;;;;;3.17;2.47;;;7.70;99.90;;;;;;4954995;28;20039;-76
2023/02/19 05:00:39;;;;;;;2.10;2.00;;;7.70;99.90;;;;;;4963447;28;20054;-77
2023/02/19 05:03:07;;;;;;;2.13;2.00;;;7.70;99.90;;;;;;4961453;28;20106;-76
2023/02/19 05:05:35;;;;;;;3.28;2.25;;;7.60;99.90;;;;;;4924644;29;20078;-77
2023/02/19 05:08:02;;;;;;;3.03;2.72;;;7.60;99.90;;;;;;4972846;28;20051;-76
2023/02/19 05:10:30;;;;;;;2.20;2.00;;;7.60;99.90;;;;;;4957636;28;20062;-76
2023/02/19 05:12:57;;;;;;;2.45;2.25;;;7.60;99.90;;;;;;4974044;28;20041;-76
2023/02/19 05:15:25;;;;;;;2.50;2.30;;;7.60;99.90;;;;;;4955192;28;20039;-76
2023/02/19 05:17:53;;;;;;;2.47;2.28;;;7.60;99.90;;;;;;4908376;29;20591;-76
2023/02/19 05:20:21;;;;;;;2.97;2.33;;;7.60;99.90;;;;;;4899099;28;20066;-76
2023/02/19 05:22:49;;;;;;;2.35;2.15;;;7.70;99.90;;;;;;4935851;29;20062;-76
2023/02/19 05:25:17;;;;;;;2.13;1.92;;;7.70;99.90;;;;;;4926097;29;20516;-76
2023/02/19 05:27:45;;;;;;;2.63;2.45;;;7.70;99.90;;;;;;4945539;29;20066;-76
2023/02/19 05:30:12;;;;;;;1.50;1.40;;;7.60;99.90;;;;;;4957708;28;20078;-76
2023/02/19 05:32:40;;;;;;;4.55;2.88;;;7.70;99.90;;;;;;4940798;28;20054;-76
2023/02/19 05:35:07;;;;;;;4.15;2.45;;;7.70;99.90;;;;;;4951098;29;20058;-77
2023/02/19 05:37:35;;;;;;;3.28;2.42;;;7.70;99.90;;;;;;4931264;29;20067;-76
2023/02/19 05:40:03;;;;;;;7.55;2.45;;;7.70;99.90;;;;;;4951114;29;20066;-77
2023/02/19 05:42:31;;;;;;;3.67;1.92;;;7.70;99.90;;;;;;4933123;29;20051;-76
2023/02/19 05:44:58;;;;;;;2.63;2.42;;;7.70;99.90;;;;;;4933965;29;20046;-76
2023/02/19 05:47:26;;;;;;;5.60;2.17;;;7.70;99.90;;;;;;4955130;28;20186;-75
2023/02/19 05:49:54;;;;;;;2.95;2.67;;;7.70;99.90;;;;;;4922730;29;20047;-76
2023/02/19 05:52:21;;;;;;;2.22;2.10;;;7.70;99.90;;;;;;4955266;28;20058;-76
2023/02/19 05:54:49;;;;;;;1.83;1.73;;;7.70;99.90;;;;;;4929478;29;20077;-76
2023/02/19 05:57:16;;;;;;;1.90;1.80;;;7.70;99.90;;;;;;4932855;29;20050;-76
2023/02/19 05:59:44;;;;;;;2.58;1.70;;;7.70;99.90;;;;;;4950364;29;20043;-76
2023/02/19 06:02:12;;;;;;;1.95;1.85;;;7.70;99.90;;;;;;4950015;28;20503;-76
2023/02/19 06:04:39;;;;;;;2.40;1.55;;;7.60;99.90;;;;;;4932250;29;20036;-76
2023/02/19 06:07:07;;;;;;;1.58;1.48;;;7.70;99.90;;;;;;4947033;29;20523;-76
2023/02/19 06:09:35;;;;;;;2.13;1.90;;;7.70;99.90;;;;;;4931095;29;20055;-76
2023/02/19 06:12:02;;;;;;;2.78;2.53;;;7.80;99.90;;;;;;4948253;29;20047;-75
2023/02/19 06:14:30;;;;;;;1.63;1.52;;;7.70;99.90;;;;;;4949791;29;20070;-76
2023/02/19 06:16:59;;;;;;;1.98;1.83;;;7.70;99.90;;;;;;4931245;29;20539;-76
2023/02/19 06:19:27;;;;;;;1.85;1.75;;;7.70;99.90;;;;;;4932757;28;20054;-76
2023/02/19 06:21:54;;;;;;;1.63;1.52;;;7.70;99.90;;;;;;4952461;28;20047;-76
2023/02/19 06:24:22;;;;;;;1.38;1.20;;;7.70;99.90;;;;;;4954021;28;20512;-76
2023/02/19 06:26:50;;;;;;;2.97;1.67;;;7.80;99.90;;;;;;4954618;28;20055;-76
2023/02/19 06:29:17;;;;;;;1.40;1.30;;;7.70;99.90;;;;;;4948810;29;20043;-76
2023/02/19 06:31:47;;;;;;;2.08;1.83;;;7.70;99.90;;;;;;4948886;29;20066;-75
2023/02/19 06:34:15;;;;;;;1.50;1.40;;;7.70;99.90;;;;;;4946854;28;20047;-76
2023/02/19 06:36:43;;;;;;;1.55;1.45;;;7.80;99.90;;;;;;4923795;29;20048;-76
2023/02/19 06:39:11;;;;;;;1.70;1.60;;;7.80;99.90;;;;;;4947700;28;20089;-76
2023/02/19 06:41:39;;;;;;;1.80;1.70;;;7.80;99.90;;;;;;4947030;28;20043;-75
2023/02/19 06:44:08;;;;;;;1.85;1.75;;;7.80;99.90;;;;;;4947723;28;20055;-76
2023/02/19 06:46:35;;;;;;;9.63;1.73;;;7.80;99.90;;;;;;4935671;29;20066;-76
2023/02/19 06:49:04;;;;;;;2.10;2.00;;;7.90;99.90;;;;;;4932426;29;20043;-76
2023/02/19 06:51:32;;;;;;;1.73;1.63;;;7.90;99.90;;;;;;4949158;29;20054;-76
2023/02/19 06:54:01;;;;;;;4.45;1.63;;;7.90;99.90;;;;;;4939264;29;20059;-75
2023/02/19 06:56:38;;;;;;;2.03;1.38;;;7.90;99.90;;;;;;4926793;28;20047;-76
2023/02/19 06:59:09;;;;;;;1.55;1.45;;;7.90;99.90;;;;;;4946436;29;20055;-76
2023/02/19 07:01:38;;;;;;;2.20;1.95;;;7.90;99.90;;;;;;4948286;29;20043;-76
2023/02/19 07:04:06;;;;;;;1.95;1.85;;;8.00;99.90;;;;;;4944365;29;20059;-75
2023/02/19 07:06:37;;;;;;;1.70;1.52;;;8.00;99.90;;;;;;4936601;29;20734;-76
2023/02/19 07:09:07;;;;;;;2.10;1.80;;;8.10;99.90;;;;;;4933591;28;20046;-76
2023/02/19 07:11:37;;;;;;;1.25;1.13;;;8.10;99.90;;;;;;4948174;29;20495;-76
2023/02/19 07:14:07;;;;;;;3.43;1.93;;;8.10;99.90;;;;;;4939932;28;20059;-75
2023/02/19 07:16:35;;;;;;;6.70;2.03;;;8.10;99.90;;;;;;4933885;28;20290;-76
2023/02/19 07:19:03;;;;;;;3.05;1.30;;;8.10;99.90;;;;;;4932616;29;20055;-76
2023/02/19 07:21:36;;;;;;;3.20;1.90;;;8.20;99.90;;;;;;4953304;28;20031;-76
2023/02/19 07:24:04;;;;;;;1.98;1.75;;;8.20;99.90;;;;;;4928697;29;20051;-76
2023/02/19 07:26:35;;;;;;;1.38;1.27;;;8.30;99.90;;;;;;4947926;29;20043;-75
2023/02/19 07:29:09;;;;;;;1.00;1.00;;;8.20;99.90;;;;;;4915472;29;20058;-76
2023/02/19 07:31:37;;;;;;;1.90;1.55;;;8.20;99.90;;;;;;4932568;29;20051;-76
2023/02/19 07:34:09;;;;;;;3.08;1.73;;;8.30;99.90;;;;;;4916393;29;20051;-76
2023/02/19 07:36:37;;;;;;;1.88;1.77;;;8.30;99.90;;;;;;4948090;28;20039;-75
2023/02/19 07:39:11;;;;;;;1.55;1.45;;;8.40;99.90;;;;;;4945460;28;20059;-76
2023/02/19 07:41:40;;;;;;;1.98;1.88;;;8.40;99.90;;;;;;4929444;29;20530;-76
2023/02/19 07:44:25;;;;;;;2.05;1.48;;;8.40;99.90;;;;;;4917353;28;20603;-77
2023/02/19 07:46:54;;;;;;;1.88;1.40;;;8.60;99.90;;;;;;4916079;29;20055;-75
2023/02/19 07:49:21;;;;;;;2.95;1.58;;;8.80;99.90;;;;;;4948991;28;20047;-76
2023/02/19 07:51:49;;;;;;;1.70;1.60;;;8.80;99.90;;;;;;4930295;29;20062;-76
2023/02/19 07:54:16;;;;;;;1.80;1.70;;;8.80;99.90;;;;;;4945591;28;20039;-76
2023/02/19 07:56:47;;;;;;;1.73;1.60;;;8.80;99.90;;;;;;4948743;29;20039;-76
2023/02/19 07:59:18;;;;;;;1.65;1.55;;;8.80;99.90;;;;;;4921442;29;20058;-76
2023/02/19 08:04:39;;;;;;;1.42;1.33;;;8.70;99.90;;;;;;4945384;28;20062;-76
2023/02/19 08:07:07;;;;;;;2.38;1.75;;;8.60;99.90;;;;;;4943794;28;20055;-76
2023/02/19 08:09:34;;;;;;;3.67;1.83;;;8.50;99.90;;;;;;4956900;28;20055;-77
2023/02/19 08:14:55;;;;;;;1.92;1.83;;;8.20;99.90;;;;;;4941307;28;20407;-77
2023/02/19 08:17:23;;;;;;;2.75;1.90;;;8.20;99.90;;;;;;4934026;28;20060;-76
2023/02/19 08:19:57;;;;;;;2.35;2.08;;;8.20;99.90;;;;;;4945769;29;20051;-76
2023/02/19 08:22:26;;;;;;;;;;;8.40;99.90;;;;;;4913982;29;20411;-77
2023/02/19 08:24:55;;;;;;;2.97;1.77;;;8.40;99.90;;;;;;4954994;28;19922;-77
2023/02/19 08:27:23;;;;;;;2.47;1.88;;;8.40;99.90;;;;;;4944132;28;20066;-77
2023/02/19 08:29:51;;;;;;;2.80;2.20;;;8.30;99.90;;;;;;4948404;28;20047;-77
2023/02/19 08:32:18;;;;;;;1.52;1.42;;;8.30;99.90;;;;;;4946975;28;20046;-77
2023/02/19 08:34:47;;;;;;;1.92;1.60;;;8.30;99.90;;;;;;4928873;29;20054;-77
2023/02/19 08:37:15;;;;;;;1.50;1.40;;;8.40;99.90;;;;;;4919811;28;20547;-77
2023/02/19 08:39:42;;;;;;;4.28;1.77;;;8.40;99.90;;;;;;4941532;29;20058;-76
2023/02/19 08:42:10;;;;;;;1.70;1.40;;;8.40;99.90;;;;;;4943011;28;20051;-76
2023/02/19 08:44:38;;;;;;;1.65;1.55;;;8.40;99.90;;;;;;4949764;28;20050;-77
2023/02/19 08:47:06;;;;;;;1.90;1.80;;;8.50;99.90;;;;;;4950494;28;20397;-77
2023/02/19 08:49:34;;;;;;;2.03;1.90;;;8.50;99.90;;;;;;4933384;29;20043;-77
2023/02/19 08:52:02;;;;;;;2.85;1.67;;;8.60;99.90;;;;;;4950227;28;20051;-77
2023/02/19 08:54:30;;;;;;;3.65;1.75;;;8.70;99.90;;;;;;4946225;28;20058;-77
2023/02/19 08:56:57;;;;;;;1.60;1.50;;;8.70;99.90;;;;;;4927485;28;20046;-76
2023/02/19 08:59:28;;;;;;;1.90;1.80;;;8.70;99.90;;;;;;4949779;28;20055;-77
2023/02/19 09:02:00;;;;;;;1.67;1.55;;;8.80;99.90;;;;;;4924123;29;20807;-76
2023/02/19 09:04:29;;;;;;;1.25;1.15;;;8.80;99.90;;;;;;4948404;28;20511;-77
2023/02/19 09:06:57;;;;;;;1.92;1.65;;;8.90;99.90;;;;;;4929560;29;20432;-76
2023/02/19 09:09:25;;;;;;;3.08;1.90;;;8.90;99.90;;;;;;4929186;29;20055;-77
2023/02/19 09:11:52;;;;;;;1.83;1.73;;;9.10;99.90;;;;;;4937241;29;20056;-77
2023/02/19 09:14:20;;;;;;;2.15;1.48;;;9.50;99.90;;;;;;4948372;28;20043;-75
2023/02/19 09:16:48;;;;;;;1.10;1.08;;;9.50;99.90;;;;;;4913057;28;20058;-77
2023/02/19 09:19:16;;;;;;;1.67;1.58;;;9.30;99.90;;;;;;4929563;29;20039;-77
2023/02/19 09:21:43;;;;;;;1.40;1.02;;;9.20;99.90;;;;;;4927196;28;20063;-76
2023/02/19 09:24:10;;;;;;;1.27;1.17;;;9.10;99.90;;;;;;4938665;28;20056;-78
2023/02/19 09:26:38;;;;;;;1.05;0.98;;;9.10;99.90;;;;;;4947097;28;20043;-77
2023/02/19 09:29:05;;;;;;;1.30;1.20;;;9.00;99.90;;;;;;4946930;28;20568;-77
2023/02/19 09:31:33;;;;;;;1.00;1.00;;;8.90;99.90;;;;;;4947464;29;20980;-76
2023/02/19 09:34:02;;;;;;;1.42;1.42;;;8.90;99.90;;;;;;4930552;29;20356;-77
2023/02/19 09:36:32;;;;;;;1.00;1.00;;;9.10;99.90;;;;;;4943970;28;20512;-77
2023/02/19 09:39:00;;;;;;;0.95;0.95;;;9.00;99.90;;;;;;4926473;29;20083;-77
2023/02/19 09:41:31;;;;;;;1.27;1.17;;;8.90;99.90;;;;;;4932842;28;20046;-77
2023/02/19 09:44:01;;;;;;;0.73;0.73;;;9.00;99.90;;;;;;4953351;28;20044;-76
2023/02/19 09:46:41;;;;;;;0.90;0.90;;;8.90;99.90;;;;;;4927953;29;20779;-76
2023/02/19 09:49:18;;;;;;;1.20;1.10;;;8.90;99.90;;;;;;4924863;29;20048;-76
2023/02/19 09:52:02;;;;;;;1.65;1.02;;;8.80;99.90;;;;;;4950655;28;20055;-76
2023/02/19 09:54:37;;;;;;;0.80;0.80;;;8.80;99.90;;;;;;4928202;29;20055;-77
2023/02/19 09:57:12;;;;;;;1.10;1.10;;;8.80;99.90;;;;;;4919550;29;20054;-76
2023/02/19 09:59:47;;;;;;;1.05;0.95;;;8.80;99.90;;;;;;4947890;28;20055;-76
2023/02/19 10:02:26;;;;;;;0.60;0.60;;;8.80;99.90;;;;;;4946410;28;20063;-76
2023/02/19 10:04:54;;;;;;;0.77;0.77;;;8.80;99.90;;;;;;4938639;29;20044;-78
2023/02/19 10:07:25;;;;;;;0.70;0.70;;;8.70;99.90;;;;;;4944608;28;20051;-78
2023/02/19 10:10:07;;;;;;;0.68;0.68;;;8.70;99.90;;;;;;4926375;29;20129;-76
2023/02/19 10:12:34;;;;;;;0.77;0.70;;;8.90;99.90;;;;;;4953468;28;20078;-78
2023/02/19 10:15:15;;;;;;;0.73;0.73;;;8.70;99.90;;;;;;4918325;29;20054;-76
2023/02/19 10:17:44;;;;;;;0.75;0.73;;;8.60;99.90;;;;;;4914046;29;20047;-76
2023/02/19 10:20:45;;;;;;;0.60;0.60;;;8.40;99.90;;;;;;4957719;28;20050;-76
2023/02/19 10:23:14;;;;;;;0.60;0.60;;;8.30;99.90;;;;;;4911467;29;20048;-77
2023/02/19 10:25:50;;;;;;;0.88;0.88;;;8.40;99.90;;;;;;4956094;29;20054;-77
2023/02/19 10:28:21;;;;;;;1.40;0.85;;;8.50;99.90;;;;;;4957651;29;20043;-76
2023/02/19 10:30:55;;;;;;;0.70;0.70;;;8.50;99.90;;;;;;4939821;29;20065;-77
2023/02/19 10:33:23;;;;;;;0.52;0.52;;;8.70;99.90;;;;;;4957372;29;20035;-76
2023/02/19 10:35:54;;;;;;;0.65;0.65;;;8.80;99.90;;;;;;4956964;29;20063;-76
2023/02/19 10:38:24;;;;;;;0.63;0.60;;;8.90;99.90;;;;;;4939031;29;20039;-75
2023/02/19 10:41:06;;;;;;;0.93;0.53;;;9.10;99.90;;;;;;4939938;29;20046;-76
2023/02/19 10:43:38;;;;;;;0.75;0.75;;;9.00;99.90;;;;;;4940630;29;20377;-76
2023/02/19 10:46:19;;;;;;;1.27;1.15;;;9.30;99.90;;;;;;4957251;28;20043;-76
2023/02/19 10:48:59;;;;;;;0.50;0.50;;;9.30;99.90;;;;;;4939436;29;20054;-76
2023/02/19 10:56:33;;;;;;;0.60;0.60;;;9.30;99.90;;;;;;4916023;29;20044;-75
2023/02/19 10:59:27;;;;;;;0.60;0.60;;;9.60;99.90;;;;;;4937837;29;20051;-76
2023/02/19 11:02:01;;;;;;;0.55;0.55;;;9.80;99.90;;;;;;4939873;29;20431;-76
2023/02/19 11:04:34;;;;;;;0.57;0.57;;;9.60;99.90;;;;;;4956300;28;20043;-76
2023/02/19 11:07:12;;;;;;;0.80;0.70;;;9.60;99.90;;;;;;4944786;29;20062;-76
2023/02/19 11:09:44;;;;;;;0.80;0.80;;;9.60;99.90;;;;;;4951929;29;20393;-76
2023/02/19 11:12:22;;;;;;;0.55;0.55;;;9.60;99.90;;;;;;4959552;28;20035;-77
2023/02/19 11:14:51;;;;;;;1.05;0.75;;;9.60;99.90;;;;;;4955621;28;20056;-77
2023/02/19 11:17:25;;;;;;;1.13;0.75;;;9.60;99.90;;;;;;4966563;28;20035;-77
2023/02/19 11:19:57;;;;;;;1.17;0.88;;;10.00;99.90;;;;;;4972026;28;20047;-77
2023/02/19 11:22:32;;;;;;;0.82;0.82;;;9.90;99.90;;;;;;4957640;28;20035;-76
2023/02/19 11:25:17;;;;;;;0.65;0.65;;;10.00;99.90;;;;;;4969179;28;20055;-77
2023/02/19 11:28:17;;;;;;;1.08;0.65;;;10.10;99.90;;;;;;4956285;28;20043;-77
2023/02/19 11:30:46;;;;;;;0.50;0.50;;;10.00;99.90;;;;;;4972155;28;20041;-77
2023/02/19 11:33:20;;;;;;;1.08;0.60;;;9.90;99.90;;;;;;4953978;28;20038;-77
2023/02/19 11:35:53;;;;;;;0.60;0.60;;;9.70;99.90;;;;;;4949156;28;20053;-77
2023/02/19 11:38:21;;;;;;;0.60;0.60;;;9.70;99.90;;;;;;4969343;28;20049;-77
2023/02/19 11:41:07;;;;;;;0.60;0.60;;;9.60;99.90;;;;;;4972303;28;20035;-77
2023/02/19 11:43:54;;;;;;;0.60;0.60;;;9.50;99.90;;;;;;4956689;28;20043;-77
2023/02/19 11:46:24;;;;;;;0.82;0.75;;;9.50;99.90;;;;;;4950488;28;20035;-76
2023/02/19 11:49:17;;;;;;;1.00;1.00;;;9.50;99.90;;;;;;4958354;28;20053;-77
2023/02/19 11:52:20;;;;;;;0.75;0.75;;;9.50;99.90;;;;;;4967721;28;20046;-76
2023/02/19 11:55:13;;;;;;;0.60;0.60;;;9.50;99.90;;;;;;4956645;28;20031;-79
2023/02/19 11:57:43;;;;;;;0.60;0.60;;;9.50;99.90;;;;;;4975307;28;20070;-77
2023/02/19 12:00:29;;;;;;;0.60;0.60;;;9.40;99.90;;;;;;4946219;28;20237;-77
2023/02/19 12:03:16;;;;;;;0.70;0.70;;;9.40;99.90;;;;;;4969719;28;20042;-76
2023/02/19 12:06:09;;;;;;;1.88;0.50;;;9.40;99.90;;;;;;4959311;28;20058;-76
2023/02/19 12:08:58;;;;;;;3.45;1.05;;;9.40;99.90;;;;;;4901823;28;20051;-77
2023/02/19 12:11:29;;;;;;;0.50;0.50;;;9.40;99.90;;;;;;4930340;29;20616;-77
2023/02/19 12:14:22;;;;;;;0.95;0.70;;;9.40;99.90;;;;;;4929067;29;20043;-77
2023/02/19 12:17:11;;;;;;;0.52;0.50;;;9.30;99.90;;;;;;4908375;29;20496;-76
2023/02/19 12:20:12;;;;;;;0.57;0.57;;;8.80;99.90;;;;;;4927448;29;20055;-76
2023/02/19 12:22:45;;;;;;;;;;;8.50;99.90;;;;;;4867363;29;20064;-77
2023/02/19 12:25:24;;;;;;;0.60;0.60;;;8.30;99.90;;;;;;4929904;29;19929;-76
2023/02/19 12:28:20;;;;;;;0.60;0.60;;;8.00;99.90;;;;;;4934913;29;20501;-76
2023/02/19 12:30:54;;;;;;;0.70;0.70;;;8.00;99.90;;;;;;4896540;29;20412;-77
2023/02/19 12:33:48;;;;;;;1.05;0.75;;;8.10;99.90;;;;;;4927535;29;20039;-77
2023/02/19 12:36:35;;;;;;;0.50;0.50;;;8.30;99.90;;;;;;4935015;29;20774;-76
2023/02/19 12:39:18;;;;;;;0.80;0.80;;;8.40;99.90;;;;;;4893864;29;20066;-76
2023/02/19 12:41:59;;;;;;;0.60;0.60;;;8.60;99.90;;;;;;4928090;29;20602;-77
2023/02/19 12:44:52;;;;;;;0.60;0.60;;;8.90;99.90;;;;;;4929137;29;20472;-77
2023/02/19 12:47:30;;;;;;;0.50;0.50;;;9.10;99.90;;;;;;4929083;29;20055;-76
2023/02/19 12:50:23;;;;;;;0.80;0.77;;;9.30;99.90;;;;;;4914024;29;20492;-76
2023/02/19 12:53:04;;;;;;;0.60;0.60;;;9.30;99.90;;;;;;4894362;29;20051;-76
2023/02/19 12:55:40;;;;;;;0.60;0.60;;;9.30;99.90;;;;;;4911067;29;20056;-76
2023/02/19 12:58:18;;;;;;;0.75;0.75;;;9.40;99.90;;;;;;4931980;29;20052;-76
2023/02/19 13:00:57;;;;;;;1.08;0.65;;;9.40;99.90;;;;;;4932143;29;20047;-77
2023/02/19 13:03:43;;;;;;;0.90;0.88;;;9.30;99.90;;;;;;4929319;29;20424;-77
2023/02/19 13:06:29;;;;;;;0.80;0.80;;;9.40;99.90;;;;;;4928240;29;20118;-76
2023/02/19 13:09:14;;;;;;;0.70;0.70;;;9.60;99.90;;;;;;4889562;29;20051;-77
2023/02/19 13:11:56;;;;;;;2.38;0.68;;;9.50;99.90;;;;;;4942781;28;20617;-75
2023/02/19 13:14:33;;;;;;;1.05;0.95;;;9.50;99.90;;;;;;4943999;28;20043;-77
2023/02/19 13:17:34;;;;;;;1.45;0.90;;;9.40;99.90;;;;;;4928701;29;20551;-77
2023/02/19 13:20:17;;;;;;;1.07;1.07;;;9.30;99.90;;;;;;4922329;29;20051;-78
2023/02/19 13:25:48;;;;;;;0.70;0.70;;;9.10;99.90;;;;;;4942240;28;20063;-77
2023/02/19 13:28:53;;;;;;;0.73;0.73;;;9.00;99.90;;;;;;4952577;28;20628;-77
2023/02/19 13:31:45;;;;;;;0.95;0.77;;;8.90;99.90;;;;;;4934366;28;20058;-76
2023/02/19 13:34:22;;;;;;;0.90;0.77;;;9.00;99.90;;;;;;4941645;28;20039;-77
2023/02/19 13:36:50;;;;;;;1.45;1.02;;;8.90;99.90;;;;;;4943545;28;20520;-77
2023/02/19 13:39:21;;;;;;;3.75;0.80;;;8.90;99.90;;;;;;4928959;29;20054;-77
2023/02/19 13:41:58;;;;;;;1.70;1.00;;;8.90;99.90;;;;;;4928830;29;20559;-76
2023/02/19 13:44:28;;;;;;;1.25;1.23;;;8.90;99.90;;;;;;4927644;29;20047;-77
2023/02/19 13:46:57;;;;;;;0.80;0.80;;;9.00;99.90;;;;;;4947426;29;20047;-77
2023/02/19 13:49:28;;;;;;;0.43;0.43;;;8.90;99.90;;;;;;4938749;29;20058;-77
2023/02/19 13:52:00;;;;;;;0.90;0.60;;;9.00;99.90;;;;;;4951202;29;20516;-77
2023/02/19 13:54:28;;;;;;;3.53;0.70;;;9.00;99.90;;;;;;4935560;28;20075;-76
2023/02/19 13:57:25;;;;;;;0.70;0.70;;;9.00;99.90;;;;;;4956395;28;20551;-77
2023/02/19 13:59:55;;;;;;;1.05;0.70;;;9.00;99.90;;;;;;4929892;29;20090;-77
2023/02/19 14:02:34;;;;;;;0.75;0.75;;;8.90;99.90;;;;;;4945576;29;20052;-76
2023/02/19 14:05:06;;;;;;;0.77;0.77;;;8.90;99.90;;;;;;4944669;28;20051;-77
2023/02/19 14:07:49;;;;;;;3.67;1.02;;;8.80;99.90;;;;;;4928251;29;20059;-76